sensor_id;sensor_type;location;lat;lon;timestamp;P1;durP1;ratioP1;P2;durP2;ratioP2
21148;SDS011;10732;51.472;6.466;2022-12-28T00:00:44;5.47;;;1.98;;
21148;SDS011;10732;51.472;6.466;2022-12-28T00:03:09;5.57;;;2.00;;
21148;SDS011;10732;51.472;6.466;2022-12-28T00:05:35;6.82;;;2.40;;
21148;SDS011;10732;51.472;6.466;2022-12-28T00:08:00;5.60;;;1.93;;
21148;SDS011;10732;51.472;6.466;2022-12-28T00:10:26;7.82;;;2.13;;
21148;SDS011;10732;51.472;6.466;2022-12-28T00:12:52;6.20;;;2.10;;
21148;SDS011;10732;51.472;6.466;2022-12-28T00:15:17;5.63;;;2.13;;
21148;SDS011;10732;51.472;6.466;2022-12-28T00:17:43;5.80;;;2.28;;
21148;SDS011;10732;51.472;6.466;2022-12-28T00:20:08;7.95;;;2.17;;
21148;SDS011;10732;51.472;6.466;2022-12-28T00:22:34;5.63;;;2.15;;
21148;SDS011;10732;51.472;6.466;2022-12-28T00:25:00;7.82;;;2.80;;
21148;SDS011;10732;51.472;6.466;2022-12-28T00:27:26;8.27;;;2.00;;
21148;SDS011;10732;51.472;6.466;2022-12-28T00:29:51;5.25;;;2.00;;
21148;SDS011;10732;51.472;6.466;2022-12-28T00:32:17;6.32;;;2.20;;
21148;SDS011;10732;51.472;6.466;2022-12-28T00:34:42;5.20;;;2.15;;
21148;SDS011;10732;51.472;6.466;2022-12-28T00:37:08;4.38;;;2.25;;
21148;SDS011;10732;51.472;6.466;2022-12-28T00:39:33;5.72;;;2.20;;
21148;SDS011;10732;51.472;6.466;2022-12-28T00:41:59;7.47;;;2.10;;
21148;SDS011;10732;51.472;6.466;2022-12-28T00:44:24;4.68;;;2.13;;
21148;SDS011;10732;51.472;6.466;2022-12-28T00:46:50;6.88;;;2.40;;
21148;SDS011;10732;51.472;6.466;2022-12-28T00:49:15;6.32;;;2.38;;
21148;SDS011;10732;51.472;6.466;2022-12-28T00:51:41;6.30;;;2.20;;
21148;SDS011;10732;51.472;6.466;2022-12-28T00:54:06;8.27;;;2.50;;
21148;SDS011;10732;51.472;6.466;2022-12-28T00:56:32;9.43;;;2.35;;
21148;SDS011;10732;51.472;6.466;2022-12-28T00:58:58;5.68;;;2.40;;
21148;SDS011;10732;51.472;6.466;2022-12-28T01:01:24;5.68;;;2.00;;
21148;SDS011;10732;51.472;6.466;2022-12-28T01:03:50;7.57;;;2.45;;
21148;SDS011;10732;51.472;6.466;2022-12-28T01:06:16;4.53;;;2.38;;
21148;SDS011;10732;51.472;6.466;2022-12-28T01:08:43;6.53;;;2.35;;
21148;SDS011;10732;51.472;6.466;2022-12-28T01:11:09;5.50;;;2.70;;
21148;SDS011;10732;51.472;6.466;2022-12-28T01:13:46;5.10;;;2.20;;
21148;SDS011;10732;51.472;6.466;2022-12-28T01:16:13;6.68;;;2.75;;
21148;SDS011;10732;51.472;6.466;2022-12-28T01:18:47;4.35;;;2.30;;
21148;SDS011;10732;51.472;6.466;2022-12-28T01:21:16;8.45;;;3.00;;
21148;SDS011;10732;51.472;6.466;2022-12-28T01:23:44;5.35;;;2.22;;
21148;SDS011;10732;51.472;6.466;2022-12-28T01:26:11;5.05;;;2.40;;
21148;SDS011;10732;51.472;6.466;2022-12-28T01:28:37;7.82;;;2.65;;
21148;SDS011;10732;51.472;6.466;2022-12-28T01:31:04;6.07;;;2.63;;
21148;SDS011;10732;51.472;6.466;2022-12-28T01:33:31;6.45;;;2.60;;
21148;SDS011;10732;51.472;6.466;2022-12-28T01:35:57;6.50;;;2.55;;
21148;SDS011;10732;51.472;6.466;2022-12-28T01:38:22;6.13;;;3.05;;
21148;SDS011;10732;51.472;6.466;2022-12-28T01:40:48;8.23;;;2.70;;
21148;SDS011;10732;51.472;6.466;2022-12-28T01:43:13;6.75;;;2.60;;
21148;SDS011;10732;51.472;6.466;2022-12-28T01:45:39;8.35;;;2.90;;
21148;SDS011;10732;51.472;6.466;2022-12-28T01:48:13;4.35;;;2.78;;
21148;SDS011;10732;51.472;6.466;2022-12-28T01:50:44;4.47;;;2.42;;
21148;SDS011;10732;51.472;6.466;2022-12-28T01:53:09;4.88;;;2.50;;
21148;SDS011;10732;51.472;6.466;2022-12-28T01:55:35;6.40;;;2.55;;
21148;SDS011;10732;51.472;6.466;2022-12-28T01:58:10;7.07;;;2.33;;
21148;SDS011;10732;51.472;6.466;2022-12-28T02:00:47;5.80;;;2.47;;
21148;SDS011;10732;51.472;6.466;2022-12-28T02:03:23;6.40;;;2.63;;
21148;SDS011;10732;51.472;6.466;2022-12-28T02:05:52;4.43;;;2.28;;
21148;SDS011;10732;51.472;6.466;2022-12-28T02:08:24;4.05;;;2.42;;
21148;SDS011;10732;51.472;6.466;2022-12-28T02:10:56;3.75;;;2.20;;
21148;SDS011;10732;51.472;6.466;2022-12-28T02:13:21;4.32;;;2.40;;
21148;SDS011;10732;51.472;6.466;2022-12-28T02:15:48;5.40;;;2.47;;
21148;SDS011;10732;51.472;6.466;2022-12-28T02:18:15;5.47;;;2.28;;
21148;SDS011;10732;51.472;6.466;2022-12-28T02:20:44;4.97;;;2.30;;
21148;SDS011;10732;51.472;6.466;2022-12-28T02:26:03;4.63;;;2.30;;
21148;SDS011;10732;51.472;6.466;2022-12-28T02:37:21;6.47;;;2.10;;
21148;SDS011;10732;51.472;6.466;2022-12-28T02:39:55;3.72;;;2.20;;
21148;SDS011;10732;51.472;6.466;2022-12-28T02:42:25;5.35;;;2.33;;
21148;SDS011;10732;51.472;6.466;2022-12-28T02:44:53;5.40;;;2.13;;
21148;SDS011;10732;51.472;6.466;2022-12-28T02:47:39;4.40;;;2.80;;
21148;SDS011;10732;51.472;6.466;2022-12-28T02:50:29;4.85;;;2.50;;
21148;SDS011;10732;51.472;6.466;2022-12-28T02:53:20;2.80;;;2.20;;
21148;SDS011;10732;51.472;6.466;2022-12-28T03:01:51;3.50;;;2.30;;
21148;SDS011;10732;51.472;6.466;2022-12-28T03:04:29;3.65;;;2.33;;
21148;SDS011;10732;51.472;6.466;2022-12-28T03:13:10;3.35;;;2.08;;
21148;SDS011;10732;51.472;6.466;2022-12-28T03:16:05;3.60;;;2.63;;
21148;SDS011;10732;51.472;6.466;2022-12-28T03:18:36;3.75;;;2.60;;
21148;SDS011;10732;51.472;6.466;2022-12-28T03:21:43;3.40;;;2.50;;
21148;SDS011;10732;51.472;6.466;2022-12-28T03:24:28;3.70;;;2.15;;
21148;SDS011;10732;51.472;6.466;2022-12-28T03:27:15;4.97;;;2.28;;
21148;SDS011;10732;51.472;6.466;2022-12-28T03:30:06;4.25;;;2.30;;
21148;SDS011;10732;51.472;6.466;2022-12-28T03:32:56;5.25;;;2.30;;
21148;SDS011;10732;51.472;6.466;2022-12-28T03:35:23;3.92;;;2.30;;
21148;SDS011;10732;51.472;6.466;2022-12-28T03:38:00;6.32;;;2.25;;
21148;SDS011;10732;51.472;6.466;2022-12-28T03:43:09;5.22;;;2.42;;
21148;SDS011;10732;51.472;6.466;2022-12-28T03:46:10;5.68;;;2.60;;
21148;SDS011;10732;51.472;6.466;2022-12-28T03:48:53;3.90;;;2.10;;
21148;SDS011;10732;51.472;6.466;2022-12-28T03:51:21;3.97;;;2.20;;
21148;SDS011;10732;51.472;6.466;2022-12-28T03:53:48;5.88;;;2.60;;
21148;SDS011;10732;51.472;6.466;2022-12-28T03:56:15;4.78;;;2.60;;
21148;SDS011;10732;51.472;6.466;2022-12-28T03:58:43;5.53;;;2.30;;
21148;SDS011;10732;51.472;6.466;2022-12-28T04:01:09;6.28;;;2.10;;
21148;SDS011;10732;51.472;6.466;2022-12-28T04:03:35;4.68;;;2.42;;
21148;SDS011;10732;51.472;6.466;2022-12-28T04:06:01;3.55;;;2.20;;
21148;SDS011;10732;51.472;6.466;2022-12-28T04:08:27;5.75;;;2.50;;
21148;SDS011;10732;51.472;6.466;2022-12-28T04:10:53;4.82;;;2.53;;
21148;SDS011;10732;51.472;6.466;2022-12-28T04:13:19;3.08;;;2.30;;
21148;SDS011;10732;51.472;6.466;2022-12-28T04:15:53;3.65;;;2.55;;
21148;SDS011;10732;51.472;6.466;2022-12-28T04:18:20;6.50;;;2.65;;
21148;SDS011;10732;51.472;6.466;2022-12-28T04:20:46;6.47;;;2.47;;
21148;SDS011;10732;51.472;6.466;2022-12-28T04:23:11;7.15;;;3.17;;
21148;SDS011;10732;51.472;6.466;2022-12-28T04:25:37;7.60;;;2.95;;
21148;SDS011;10732;51.472;6.466;2022-12-28T04:28:02;5.50;;;2.90;;
21148;SDS011;10732;51.472;6.466;2022-12-28T04:30:28;5.85;;;2.58;;
21148;SDS011;10732;51.472;6.466;2022-12-28T04:32:54;6.10;;;2.88;;
21148;SDS011;10732;51.472;6.466;2022-12-28T04:35:19;8.23;;;3.20;;
21148;SDS011;10732;51.472;6.466;2022-12-28T04:37:45;6.00;;;2.88;;
21148;SDS011;10732;51.472;6.466;2022-12-28T04:40:10;5.60;;;2.92;;
21148;SDS011;10732;51.472;6.466;2022-12-28T04:42:36;4.07;;;3.22;;
21148;SDS011;10732;51.472;6.466;2022-12-28T04:45:02;5.40;;;2.88;;
21148;SDS011;10732;51.472;6.466;2022-12-28T04:47:28;5.30;;;2.92;;
21148;SDS011;10732;51.472;6.466;2022-12-28T04:49:53;5.45;;;2.90;;
21148;SDS011;10732;51.472;6.466;2022-12-28T04:52:19;5.32;;;2.80;;
21148;SDS011;10732;51.472;6.466;2022-12-28T04:54:46;4.80;;;2.83;;
21148;SDS011;10732;51.472;6.466;2022-12-28T04:57:12;7.95;;;3.38;;
21148;SDS011;10732;51.472;6.466;2022-12-28T04:59:37;4.65;;;2.88;;
21148;SDS011;10732;51.472;6.466;2022-12-28T05:02:04;5.80;;;2.65;;
21148;SDS011;10732;51.472;6.466;2022-12-28T05:04:30;6.63;;;2.70;;
21148;SDS011;10732;51.472;6.466;2022-12-28T05:06:55;5.53;;;2.85;;
21148;SDS011;10732;51.472;6.466;2022-12-28T05:09:21;7.72;;;2.88;;
21148;SDS011;10732;51.472;6.466;2022-12-28T05:11:47;5.40;;;2.67;;
21148;SDS011;10732;51.472;6.466;2022-12-28T05:14:13;6.07;;;2.65;;
21148;SDS011;10732;51.472;6.466;2022-12-28T05:16:39;5.18;;;2.45;;
21148;SDS011;10732;51.472;6.466;2022-12-28T05:19:04;4.30;;;2.35;;
21148;SDS011;10732;51.472;6.466;2022-12-28T05:21:30;5.97;;;2.53;;
21148;SDS011;10732;51.472;6.466;2022-12-28T05:23:56;5.85;;;2.35;;
21148;SDS011;10732;51.472;6.466;2022-12-28T05:26:23;8.00;;;2.50;;
21148;SDS011;10732;51.472;6.466;2022-12-28T05:28:50;4.60;;;2.45;;
21148;SDS011;10732;51.472;6.466;2022-12-28T05:31:17;5.18;;;2.55;;
21148;SDS011;10732;51.472;6.466;2022-12-28T05:33:44;4.63;;;2.40;;
21148;SDS011;10732;51.472;6.466;2022-12-28T05:36:18;4.00;;;2.55;;
21148;SDS011;10732;51.472;6.466;2022-12-28T05:38:45;6.35;;;2.80;;
21148;SDS011;10732;51.472;6.466;2022-12-28T05:41:15;4.00;;;2.70;;
21148;SDS011;10732;51.472;6.466;2022-12-28T05:43:46;6.60;;;3.05;;
21148;SDS011;10732;51.472;6.466;2022-12-28T05:46:13;5.72;;;2.60;;
21148;SDS011;10732;51.472;6.466;2022-12-28T05:48:43;4.47;;;2.55;;
21148;SDS011;10732;51.472;6.466;2022-12-28T05:51:10;5.90;;;2.83;;
21148;SDS011;10732;51.472;6.466;2022-12-28T05:53:38;6.05;;;2.72;;
21148;SDS011;10732;51.472;6.466;2022-12-28T05:56:05;8.35;;;2.80;;
21148;SDS011;10732;51.472;6.466;2022-12-28T05:58:32;5.30;;;2.65;;
21148;SDS011;10732;51.472;6.466;2022-12-28T06:01:02;5.57;;;2.88;;
21148;SDS011;10732;51.472;6.466;2022-12-28T06:03:32;7.57;;;3.10;;
21148;SDS011;10732;51.472;6.466;2022-12-28T06:06:02;5.93;;;3.20;;
21148;SDS011;10732;51.472;6.466;2022-12-28T06:08:33;4.85;;;2.67;;
21148;SDS011;10732;51.472;6.466;2022-12-28T06:11:03;5.20;;;2.97;;
21148;SDS011;10732;51.472;6.466;2022-12-28T06:13:30;6.10;;;3.30;;
21148;SDS011;10732;51.472;6.466;2022-12-28T06:15:56;6.65;;;2.83;;
21148;SDS011;10732;51.472;6.466;2022-12-28T06:18:23;6.28;;;3.38;;
21148;SDS011;10732;51.472;6.466;2022-12-28T06:20:52;6.15;;;2.65;;
21148;SDS011;10732;51.472;6.466;2022-12-28T06:23:18;3.70;;;2.45;;
21148;SDS011;10732;51.472;6.466;2022-12-28T06:25:43;4.43;;;2.70;;
21148;SDS011;10732;51.472;6.466;2022-12-28T06:28:09;5.75;;;2.80;;
21148;SDS011;10732;51.472;6.466;2022-12-28T06:30:34;6.70;;;2.58;;
21148;SDS011;10732;51.472;6.466;2022-12-28T06:33:00;6.55;;;2.58;;
21148;SDS011;10732;51.472;6.466;2022-12-28T06:35:25;4.72;;;2.75;;
21148;SDS011;10732;51.472;6.466;2022-12-28T06:37:51;5.43;;;2.78;;
21148;SDS011;10732;51.472;6.466;2022-12-28T06:40:16;3.95;;;2.58;;
21148;SDS011;10732;51.472;6.466;2022-12-28T06:42:42;4.65;;;2.75;;
21148;SDS011;10732;51.472;6.466;2022-12-28T06:45:07;5.30;;;2.63;;
21148;SDS011;10732;51.472;6.466;2022-12-28T06:47:33;7.15;;;2.58;;
21148;SDS011;10732;51.472;6.466;2022-12-28T06:50:01;8.15;;;3.05;;
21148;SDS011;10732;51.472;6.466;2022-12-28T06:52:27;6.13;;;2.80;;
21148;SDS011;10732;51.472;6.466;2022-12-28T06:54:53;3.03;;;2.38;;
21148;SDS011;10732;51.472;6.466;2022-12-28T06:57:19;6.53;;;2.75;;
21148;SDS011;10732;51.472;6.466;2022-12-28T06:59:44;5.57;;;2.53;;
21148;SDS011;10732;51.472;6.466;2022-12-28T07:02:10;4.95;;;2.80;;
21148;SDS011;10732;51.472;6.466;2022-12-28T07:04:36;6.43;;;3.00;;
21148;SDS011;10732;51.472;6.466;2022-12-28T07:07:01;6.53;;;2.80;;
21148;SDS011;10732;51.472;6.466;2022-12-28T07:09:27;7.53;;;2.65;;
21148;SDS011;10732;51.472;6.466;2022-12-28T07:11:52;5.47;;;2.65;;
21148;SDS011;10732;51.472;6.466;2022-12-28T07:14:18;3.78;;;2.60;;
21148;SDS011;10732;51.472;6.466;2022-12-28T07:16:43;6.32;;;2.55;;
21148;SDS011;10732;51.472;6.466;2022-12-28T07:19:09;8.30;;;2.63;;
21148;SDS011;10732;51.472;6.466;2022-12-28T07:21:35;5.65;;;2.53;;
21148;SDS011;10732;51.472;6.466;2022-12-28T07:24:02;5.32;;;2.50;;
21148;SDS011;10732;51.472;6.466;2022-12-28T07:26:31;5.13;;;2.40;;
21148;SDS011;10732;51.472;6.466;2022-12-28T07:28:58;8.05;;;2.38;;
21148;SDS011;10732;51.472;6.466;2022-12-28T07:31:26;7.10;;;2.67;;
21148;SDS011;10732;51.472;6.466;2022-12-28T07:33:54;6.25;;;2.55;;
21148;SDS011;10732;51.472;6.466;2022-12-28T07:36:21;4.32;;;2.50;;
21148;SDS011;10732;51.472;6.466;2022-12-28T07:38:48;5.45;;;2.15;;
21148;SDS011;10732;51.472;6.466;2022-12-28T07:41:18;3.63;;;2.38;;
21148;SDS011;10732;51.472;6.466;2022-12-28T07:43:48;4.05;;;2.13;;
21148;SDS011;10732;51.472;6.466;2022-12-28T07:46:24;6.43;;;2.60;;
21148;SDS011;10732;51.472;6.466;2022-12-28T07:48:53;5.03;;;2.10;;
21148;SDS011;10732;51.472;6.466;2022-12-28T07:53:48;2.67;;;1.88;;
21148;SDS011;10732;51.472;6.466;2022-12-28T07:56:15;2.75;;;2.00;;
21148;SDS011;10732;51.472;6.466;2022-12-28T07:58:46;3.40;;;1.80;;
21148;SDS011;10732;51.472;6.466;2022-12-28T08:01:13;3.42;;;1.67;;
21148;SDS011;10732;51.472;6.466;2022-12-28T08:03:40;2.35;;;1.58;;
21148;SDS011;10732;51.472;6.466;2022-12-28T08:08:34;2.90;;;1.60;;
21148;SDS011;10732;51.472;6.466;2022-12-28T08:11:01;3.33;;;1.40;;
21148;SDS011;10732;51.472;6.466;2022-12-28T08:13:32;4.38;;;1.50;;
21148;SDS011;10732;51.472;6.466;2022-12-28T08:15:59;2.08;;;1.48;;
21148;SDS011;10732;51.472;6.466;2022-12-28T08:18:26;3.63;;;1.60;;
21148;SDS011;10732;51.472;6.466;2022-12-28T08:20:52;1.95;;;1.48;;
21148;SDS011;10732;51.472;6.466;2022-12-28T08:23:18;4.18;;;1.40;;
21148;SDS011;10732;51.472;6.466;2022-12-28T08:25:44;2.47;;;1.58;;
21148;SDS011;10732;51.472;6.466;2022-12-28T08:28:09;3.90;;;1.52;;
21148;SDS011;10732;51.472;6.466;2022-12-28T08:30:35;3.25;;;1.33;;
21148;SDS011;10732;51.472;6.466;2022-12-28T08:33:00;2.78;;;1.50;;
21148;SDS011;10732;51.472;6.466;2022-12-28T08:35:26;2.28;;;1.60;;
21148;SDS011;10732;51.472;6.466;2022-12-28T08:37:55;4.82;;;2.05;;
21148;SDS011;10732;51.472;6.466;2022-12-28T08:40:21;5.47;;;1.83;;
21148;SDS011;10732;51.472;6.466;2022-12-28T08:42:51;2.80;;;1.70;;
21148;SDS011;10732;51.472;6.466;2022-12-28T08:45:20;2.45;;;1.58;;
21148;SDS011;10732;51.472;6.466;2022-12-28T08:47:45;2.58;;;1.50;;
21148;SDS011;10732;51.472;6.466;2022-12-28T08:50:11;3.55;;;1.60;;
21148;SDS011;10732;51.472;6.466;2022-12-28T08:52:36;5.88;;;1.70;;
21148;SDS011;10732;51.472;6.466;2022-12-28T08:55:02;3.47;;;1.60;;
21148;SDS011;10732;51.472;6.466;2022-12-28T08:57:27;3.65;;;1.45;;
21148;SDS011;10732;51.472;6.466;2022-12-28T08:59:53;3.25;;;1.52;;
21148;SDS011;10732;51.472;6.466;2022-12-28T09:02:18;3.42;;;1.40;;
21148;SDS011;10732;51.472;6.466;2022-12-28T09:04:44;1.88;;;1.50;;
21148;SDS011;10732;51.472;6.466;2022-12-28T09:07:09;2.15;;;1.55;;
21148;SDS011;10732;51.472;6.466;2022-12-28T09:09:35;5.20;;;1.50;;
21148;SDS011;10732;51.472;6.466;2022-12-28T09:12:00;1.70;;;1.23;;
21148;SDS011;10732;51.472;6.466;2022-12-28T09:14:26;5.05;;;1.33;;
21148;SDS011;10732;51.472;6.466;2022-12-28T09:16:52;2.90;;;1.40;;
21148;SDS011;10732;51.472;6.466;2022-12-28T09:19:18;1.77;;;1.27;;
21148;SDS011;10732;51.472;6.466;2022-12-28T09:21:44;3.65;;;1.45;;
21148;SDS011;10732;51.472;6.466;2022-12-28T09:24:12;4.47;;;1.58;;
21148;SDS011;10732;51.472;6.466;2022-12-28T09:26:38;3.25;;;1.52;;
21148;SDS011;10732;51.472;6.466;2022-12-28T09:29:05;1.30;;;1.20;;
21148;SDS011;10732;51.472;6.466;2022-12-28T09:31:33;2.63;;;1.50;;
21148;SDS011;10732;51.472;6.466;2022-12-28T09:34:00;1.80;;;1.60;;
21148;SDS011;10732;51.472;6.466;2022-12-28T09:36:34;2.13;;;0.98;;
21148;SDS011;10732;51.472;6.466;2022-12-28T09:39:02;2.45;;;1.50;;
21148;SDS011;10732;51.472;6.466;2022-12-28T09:46:59;2.25;;;1.42;;
21148;SDS011;10732;51.472;6.466;2022-12-28T09:49:32;3.13;;;1.42;;
21148;SDS011;10732;51.472;6.466;2022-12-28T09:54:39;1.92;;;1.30;;
21148;SDS011;10732;51.472;6.466;2022-12-28T09:57:10;4.57;;;1.35;;
21148;SDS011;10732;51.472;6.466;2022-12-28T09:59:39;3.28;;;1.50;;
21148;SDS011;10732;51.472;6.466;2022-12-28T10:02:08;2.70;;;1.27;;
21148;SDS011;10732;51.472;6.466;2022-12-28T10:04:57;2.55;;;1.30;;
21148;SDS011;10732;51.472;6.466;2022-12-28T10:07:23;2.78;;;1.30;;
21148;SDS011;10732;51.472;6.466;2022-12-28T10:09:49;1.50;;;1.20;;
21148;SDS011;10732;51.472;6.466;2022-12-28T10:12:16;1.58;;;1.15;;
21148;SDS011;10732;51.472;6.466;2022-12-28T10:14:45;2.97;;;1.27;;
21148;SDS011;10732;51.472;6.466;2022-12-28T10:17:12;1.83;;;1.20;;
21148;SDS011;10732;51.472;6.466;2022-12-28T10:19:40;3.97;;;1.23;;
21148;SDS011;10732;51.472;6.466;2022-12-28T10:22:13;1.65;;;1.10;;
21148;SDS011;10732;51.472;6.466;2022-12-28T10:24:43;1.85;;;1.08;;
21148;SDS011;10732;51.472;6.466;2022-12-28T10:27:11;3.63;;;1.38;;
21148;SDS011;10732;51.472;6.466;2022-12-28T10:29:55;1.83;;;1.23;;
21148;SDS011;10732;51.472;6.466;2022-12-28T10:32:25;1.10;;;1.00;;
21148;SDS011;10732;51.472;6.466;2022-12-28T10:34:55;1.33;;;1.10;;
21148;SDS011;10732;51.472;6.466;2022-12-28T10:37:23;1.23;;;1.13;;
21148;SDS011;10732;51.472;6.466;2022-12-28T10:39:52;1.90;;;1.27;;
21148;SDS011;10732;51.472;6.466;2022-12-28T10:42:23;3.10;;;1.20;;
21148;SDS011;10732;51.472;6.466;2022-12-28T10:45:02;1.50;;;1.17;;
21148;SDS011;10732;51.472;6.466;2022-12-28T10:47:34;2.25;;;1.20;;
21148;SDS011;10732;51.472;6.466;2022-12-28T10:50:35;2.15;;;1.25;;
21148;SDS011;10732;51.472;6.466;2022-12-28T10:53:03;1.85;;;1.17;;
21148;SDS011;10732;51.472;6.466;2022-12-28T10:55:30;2.80;;;1.08;;
21148;SDS011;10732;51.472;6.466;2022-12-28T11:01:00;2.88;;;1.10;;
21148;SDS011;10732;51.472;6.466;2022-12-28T11:03:32;3.13;;;1.20;;
21148;SDS011;10732;51.472;6.466;2022-12-28T11:07:00;2.17;;;1.20;;
21148;SDS011;10732;51.472;6.466;2022-12-28T11:09:01;1.88;;;1.30;;
21148;SDS011;10732;51.472;6.466;2022-12-28T11:11:27;2.55;;;1.20;;
21148;SDS011;10732;51.472;6.466;2022-12-28T11:14:01;3.03;;;1.45;;
21148;SDS011;10732;51.472;6.466;2022-12-28T11:16:32;2.17;;;1.40;;
21148;SDS011;10732;51.472;6.466;2022-12-28T11:19:00;1.67;;;1.20;;
21148;SDS011;10732;51.472;6.466;2022-12-28T11:21:26;3.97;;;1.30;;
21148;SDS011;10732;51.472;6.466;2022-12-28T11:23:52;2.40;;;1.13;;
21148;SDS011;10732;51.472;6.466;2022-12-28T11:26:18;1.58;;;1.20;;
21148;SDS011;10732;51.472;6.466;2022-12-28T11:28:45;1.40;;;1.27;;
21148;SDS011;10732;51.472;6.466;2022-12-28T11:31:19;2.15;;;1.42;;
21148;SDS011;10732;51.472;6.466;2022-12-28T11:33:52;4.30;;;1.40;;
21148;SDS011;10732;51.472;6.466;2022-12-28T11:36:25;2.65;;;1.40;;
21148;SDS011;10732;51.472;6.466;2022-12-28T11:38:53;1.90;;;1.08;;
21148;SDS011;10732;51.472;6.466;2022-12-28T11:43:49;5.45;;;1.48;;
21148;SDS011;10732;51.472;6.466;2022-12-28T11:48:55;1.63;;;1.05;;
21148;SDS011;10732;51.472;6.466;2022-12-28T11:56:26;3.58;;;1.45;;
21148;SDS011;10732;51.472;6.466;2022-12-28T11:59:19;5.15;;;1.50;;
21148;SDS011;10732;51.472;6.466;2022-12-28T12:01:48;2.28;;;1.27;;
21148;SDS011;10732;51.472;6.466;2022-12-28T12:04:16;6.55;;;1.40;;
21148;SDS011;10732;51.472;6.466;2022-12-28T12:11:54;6.25;;;1.60;;
21148;SDS011;10732;51.472;6.466;2022-12-28T12:14:29;3.13;;;1.27;;
21148;SDS011;10732;51.472;6.466;2022-12-28T12:17:10;7.20;;;1.67;;
21148;SDS011;10732;51.472;6.466;2022-12-28T12:19:48;2.88;;;1.30;;
21148;SDS011;10732;51.472;6.466;2022-12-28T12:22:22;1.90;;;1.48;;
21148;SDS011;10732;51.472;6.466;2022-12-28T12:25:03;4.78;;;1.50;;
21148;SDS011;10732;51.472;6.466;2022-12-28T12:27:39;3.38;;;1.40;;
21148;SDS011;10732;51.472;6.466;2022-12-28T12:30:15;3.30;;;1.40;;
21148;SDS011;10732;51.472;6.466;2022-12-28T12:32:59;3.15;;;1.50;;
21148;SDS011;10732;51.472;6.466;2022-12-28T12:35:37;2.92;;;1.30;;
21148;SDS011;10732;51.472;6.466;2022-12-28T12:38:39;2.05;;;1.40;;
21148;SDS011;10732;51.472;6.466;2022-12-28T12:47:01;1.48;;;1.10;;
21148;SDS011;10732;51.472;6.466;2022-12-28T12:50:11;3.38;;;1.25;;
21148;SDS011;10732;51.472;6.466;2022-12-28T12:56:06;1.95;;;1.20;;
21148;SDS011;10732;51.472;6.466;2022-12-28T13:01:28;4.60;;;1.60;;
21148;SDS011;10732;51.472;6.466;2022-12-28T13:04:06;5.53;;;1.50;;
21148;SDS011;10732;51.472;6.466;2022-12-28T13:06:38;3.63;;;1.50;;
21148;SDS011;10732;51.472;6.466;2022-12-28T13:09:05;2.38;;;1.30;;
21148;SDS011;10732;51.472;6.466;2022-12-28T13:11:34;2.47;;;1.50;;
21148;SDS011;10732;51.472;6.466;2022-12-28T13:14:01;3.53;;;1.60;;
21148;SDS011;10732;51.472;6.466;2022-12-28T13:16:27;2.67;;;1.25;;
21148;SDS011;10732;51.472;6.466;2022-12-28T13:18:58;4.40;;;1.55;;
21148;SDS011;10732;51.472;6.466;2022-12-28T13:21:38;4.68;;;1.50;;
21148;SDS011;10732;51.472;6.466;2022-12-28T13:26:54;3.25;;;1.30;;
21148;SDS011;10732;51.472;6.466;2022-12-28T13:29:22;3.20;;;1.35;;
21148;SDS011;10732;51.472;6.466;2022-12-28T13:31:50;2.50;;;1.23;;
21148;SDS011;10732;51.472;6.466;2022-12-28T13:34:17;2.40;;;1.20;;
21148;SDS011;10732;51.472;6.466;2022-12-28T13:36:49;1.98;;;1.20;;
21148;SDS011;10732;51.472;6.466;2022-12-28T13:39:22;1.92;;;1.23;;
21148;SDS011;10732;51.472;6.466;2022-12-28T13:41:49;2.88;;;1.27;;
21148;SDS011;10732;51.472;6.466;2022-12-28T13:44:33;2.03;;;1.60;;
21148;SDS011;10732;51.472;6.466;2022-12-28T13:49:35;2.20;;;1.27;;
21148;SDS011;10732;51.472;6.466;2022-12-28T13:52:08;4.10;;;1.35;;
21148;SDS011;10732;51.472;6.466;2022-12-28T13:54:39;2.65;;;1.17;;
21148;SDS011;10732;51.472;6.466;2022-12-28T13:57:10;1.55;;;1.20;;
21148;SDS011;10732;51.472;6.466;2022-12-28T13:59:39;3.22;;;1.33;;
21148;SDS011;10732;51.472;6.466;2022-12-28T14:02:04;3.60;;;1.30;;
21148;SDS011;10732;51.472;6.466;2022-12-28T14:04:30;2.90;;;1.60;;
21148;SDS011;10732;51.472;6.466;2022-12-28T14:06:56;2.95;;;1.50;;
21148;SDS011;10732;51.472;6.466;2022-12-28T14:09:23;3.92;;;1.50;;
21148;SDS011;10732;51.472;6.466;2022-12-28T14:11:49;2.60;;;1.23;;
21148;SDS011;10732;51.472;6.466;2022-12-28T14:14:15;3.35;;;1.50;;
21148;SDS011;10732;51.472;6.466;2022-12-28T14:16:41;3.40;;;1.50;;
21148;SDS011;10732;51.472;6.466;2022-12-28T14:19:08;4.20;;;1.60;;
21148;SDS011;10732;51.472;6.466;2022-12-28T14:21:35;3.70;;;1.60;;
21148;SDS011;10732;51.472;6.466;2022-12-28T14:24:10;3.80;;;1.60;;
21148;SDS011;10732;51.472;6.466;2022-12-28T14:29:34;3.53;;;1.60;;
21148;SDS011;10732;51.472;6.466;2022-12-28T14:32:01;4.85;;;1.48;;
21148;SDS011;10732;51.472;6.466;2022-12-28T14:34:30;3.42;;;1.63;;
21148;SDS011;10732;51.472;6.466;2022-12-28T14:36:58;4.78;;;1.77;;
21148;SDS011;10732;51.472;6.466;2022-12-28T14:39:34;3.30;;;1.52;;
21148;SDS011;10732;51.472;6.466;2022-12-28T14:42:04;3.67;;;1.80;;
21148;SDS011;10732;51.472;6.466;2022-12-28T14:44:40;4.68;;;1.77;;
21148;SDS011;10732;51.472;6.466;2022-12-28T14:52:41;5.55;;;1.67;;
21148;SDS011;10732;51.472;6.466;2022-12-28T14:55:22;2.60;;;1.70;;
21148;SDS011;10732;51.472;6.466;2022-12-28T14:57:58;4.90;;;1.90;;
21148;SDS011;10732;51.472;6.466;2022-12-28T15:00:32;7.70;;;1.92;;
21148;SDS011;10732;51.472;6.466;2022-12-28T15:03:14;2.47;;;1.63;;
21148;SDS011;10732;51.472;6.466;2022-12-28T15:05:43;5.03;;;1.80;;
21148;SDS011;10732;51.472;6.466;2022-12-28T15:08:10;3.25;;;1.65;;
21148;SDS011;10732;51.472;6.466;2022-12-28T15:10:38;3.20;;;1.70;;
21148;SDS011;10732;51.472;6.466;2022-12-28T15:13:15;3.00;;;2.10;;
21148;SDS011;10732;51.472;6.466;2022-12-28T15:15:42;7.95;;;2.15;;
21148;SDS011;10732;51.472;6.466;2022-12-28T15:18:07;7.15;;;1.85;;
21148;SDS011;10732;51.472;6.466;2022-12-28T15:20:36;4.00;;;1.90;;
21148;SDS011;10732;51.472;6.466;2022-12-28T15:23:02;4.78;;;1.80;;
21148;SDS011;10732;51.472;6.466;2022-12-28T15:25:31;3.92;;;1.77;;
21148;SDS011;10732;51.472;6.466;2022-12-28T15:27:57;3.65;;;1.88;;
21148;SDS011;10732;51.472;6.466;2022-12-28T15:30:23;5.45;;;1.83;;
21148;SDS011;10732;51.472;6.466;2022-12-28T15:32:48;6.60;;;2.40;;
21148;SDS011;10732;51.472;6.466;2022-12-28T15:35:14;2.60;;;1.70;;
21148;SDS011;10732;51.472;6.466;2022-12-28T15:37:40;5.55;;;2.15;;
21148;SDS011;10732;51.472;6.466;2022-12-28T15:40:06;5.07;;;1.77;;
21148;SDS011;10732;51.472;6.466;2022-12-28T15:42:32;3.25;;;1.50;;
21148;SDS011;10732;51.472;6.466;2022-12-28T15:44:58;2.70;;;1.60;;
21148;SDS011;10732;51.472;6.466;2022-12-28T15:47:23;4.85;;;2.03;;
21148;SDS011;10732;51.472;6.466;2022-12-28T15:49:49;3.63;;;1.85;;
21148;SDS011;10732;51.472;6.466;2022-12-28T15:52:14;5.03;;;1.70;;
21148;SDS011;10732;51.472;6.466;2022-12-28T15:54:40;4.15;;;1.80;;
21148;SDS011;10732;51.472;6.466;2022-12-28T15:57:05;2.80;;;1.70;;
21148;SDS011;10732;51.472;6.466;2022-12-28T15:59:31;3.20;;;1.67;;
21148;SDS011;10732;51.472;6.466;2022-12-28T16:01:56;3.30;;;1.90;;
21148;SDS011;10732;51.472;6.466;2022-12-28T16:04:22;3.80;;;1.88;;
21148;SDS011;10732;51.472;6.466;2022-12-28T16:06:47;4.63;;;1.63;;
21148;SDS011;10732;51.472;6.466;2022-12-28T16:09:13;2.25;;;1.42;;
21148;SDS011;10732;51.472;6.466;2022-12-28T16:11:39;5.20;;;1.80;;
21148;SDS011;10732;51.472;6.466;2022-12-28T16:14:05;5.47;;;1.70;;
21148;SDS011;10732;51.472;6.466;2022-12-28T16:16:37;4.25;;;1.67;;
21148;SDS011;10732;51.472;6.466;2022-12-28T16:19:04;5.70;;;1.98;;
21148;SDS011;10732;51.472;6.466;2022-12-28T16:21:30;2.78;;;1.50;;
21148;SDS011;10732;51.472;6.466;2022-12-28T16:23:57;5.50;;;1.63;;